createdAt,value
2019-02-25T00:02:34.541Z,85.30
2019-02-25T00:05:04.950Z,86.30
2019-02-25T00:07:35.079Z,87.70
2019-02-25T00:10:05.909Z,87.90
2019-02-25T00:12:36.347Z,89.20
2019-02-25T00:15:06.873Z,90.80
2019-02-25T00:17:38.825Z,91.70
2019-02-25T00:20:10.707Z,93.40
2019-02-25T00:22:40.890Z,95.10
2019-02-25T00:25:11.239Z,98.80
2019-02-25T00:27:41.581Z,99.70
2019-02-25T00:30:11.825Z,99.90
2019-02-25T00:32:42.053Z,99.90
2019-02-25T00:35:12.334Z,99.90
2019-02-25T00:37:42.597Z,99.90
2019-02-25T00:40:12.896Z,99.90
2019-02-25T00:42:43.067Z,99.90
2019-02-25T00:45:13.262Z,99.90
2019-02-25T00:47:43.538Z,99.90
2019-02-25T00:50:14.317Z,99.90
2019-02-25T00:52:44.546Z,99.90
2019-02-25T00:55:15.046Z,99.90
2019-02-25T00:57:45.096Z,99.90
2019-02-25T01:00:16.009Z,99.90
2019-02-25T01:02:46.337Z,99.90
2019-02-25T01:05:17.242Z,99.90
2019-02-25T01:07:47.390Z,99.90
2019-02-25T01:10:18.335Z,99.90
2019-02-25T01:12:49.031Z,99.90
2019-02-25T01:15:19.199Z,99.90
2019-02-25T01:17:49.394Z,99.90
2019-02-25T01:20:19.629Z,99.90
2019-02-25T01:22:49.853Z,99.90
2019-02-25T01:25:20.236Z,99.90
2019-02-25T01:27:50.562Z,99.90
2019-02-25T01:30:23.445Z,99.90
2019-02-25T01:32:53.854Z,99.90
2019-02-25T01:35:24.081Z,99.90
2019-02-25T01:37:54.607Z,99.90
2019-02-25T01:40:26.161Z,99.90
2019-02-25T01:42:56.318Z,99.90
2019-02-25T01:45:27.116Z,99.90
2019-02-25T01:47:57.451Z,99.90
2019-02-25T01:50:28.579Z,99.90
2019-02-25T01:52:58.918Z,99.90
2019-02-25T01:55:29.036Z,99.90
2019-02-25T01:57:59.211Z,99.90
2019-02-25T02:00:29.499Z,99.90
2019-02-25T02:02:59.637Z,99.90
2019-02-25T02:05:29.857Z,99.90
2019-02-25T02:08:00.086Z,99.90
2019-02-25T02:10:30.299Z,99.90
2019-02-25T02:13:00.461Z,99.90
2019-02-25T02:15:30.735Z,99.90
2019-02-25T02:18:01.010Z,99.90
2019-02-25T02:20:31.144Z,99.90
2019-02-25T02:23:01.414Z,99.90
2019-02-25T02:25:31.674Z,99.90
2019-02-25T02:28:01.913Z,99.90
2019-02-25T02:30:32.119Z,99.90
2019-02-25T02:33:02.342Z,99.90
2019-02-25T02:35:32.625Z,99.90
2019-02-25T02:38:02.782Z,99.90
2019-02-25T02:40:32.964Z,99.90
2019-02-25T02:43:03.084Z,99.90
2019-02-25T02:45:39.359Z,99.90
2019-02-25T02:48:16.003Z,99.90
2019-02-25T02:50:46.235Z,99.90
2019-02-25T02:53:17.309Z,99.90
2019-02-25T02:55:47.460Z,99.90
2019-02-25T02:58:17.657Z,99.90
2019-02-25T03:00:47.844Z,99.90
2019-02-25T03:03:17.952Z,99.90
2019-02-25T03:05:48.214Z,99.90
2019-02-25T03:08:18.383Z,99.90
2019-02-25T03:10:48.548Z,99.90
2019-02-25T03:13:18.791Z,99.90
2019-02-25T03:15:49.049Z,99.90
2019-02-25T03:18:19.342Z,99.90
2019-02-25T03:20:49.610Z,99.90
2019-02-25T03:23:19.829Z,99.90
2019-02-25T03:25:49.941Z,99.90
2019-02-25T03:28:20.072Z,99.90
2019-02-25T03:30:50.279Z,99.90
2019-02-25T03:33:20.517Z,99.90
2019-02-25T03:35:50.788Z,99.90
2019-02-25T03:38:20.931Z,99.90
2019-02-25T03:40:51.167Z,99.90
2019-02-25T03:43:21.452Z,99.90
2019-02-25T03:45:51.569Z,99.90
2019-02-25T03:48:24.574Z,99.90
2019-02-25T03:50:56.611Z,99.90
2019-02-25T03:53:26.838Z,99.90
2019-02-25T03:55:58.676Z,99.90
2019-02-25T03:58:29.009Z,99.90
2019-02-25T04:00:59.670Z,99.90
2019-02-25T04:03:29.877Z,99.90
2019-02-25T04:06:00.964Z,99.90
2019-02-25T04:08:31.245Z,99.90
2019-02-25T04:11:01.429Z,99.90
2019-02-25T04:13:31.671Z,99.90
2019-02-25T04:16:02.346Z,99.90
2019-02-25T04:18:32.470Z,99.90
2019-02-25T04:21:02.704Z,99.90
2019-02-25T04:23:32.977Z,99.90
2019-02-25T04:26:03.124Z,99.90
2019-02-25T04:28:33.262Z,99.90
2019-02-25T04:31:03.440Z,99.90
2019-02-25T04:33:33.703Z,99.90
2019-02-25T04:36:03.882Z,99.90
2019-02-25T04:38:33.988Z,99.90
2019-02-25T04:41:04.255Z,99.90
2019-02-25T04:43:34.430Z,99.90
2019-02-25T04:46:04.645Z,99.90
2019-02-25T04:48:34.929Z,99.90
2019-02-25T04:51:05.187Z,99.90
2019-02-25T04:53:35.428Z,99.90
2019-02-25T04:56:05.653Z,99.90
2019-02-25T04:58:36.798Z,99.90
2019-02-25T05:01:07.001Z,99.90
2019-02-25T05:03:37.189Z,99.90
2019-02-25T05:06:07.454Z,99.90
2019-02-25T05:08:37.668Z,99.90
2019-02-25T05:11:07.827Z,99.90
2019-02-25T05:13:38.093Z,99.90
2019-02-25T05:16:08.246Z,99.90
2019-02-25T05:18:38.462Z,99.90
2019-02-25T05:21:08.769Z,99.90
2019-02-25T05:23:39.006Z,99.90
2019-02-25T05:26:09.203Z,99.90
2019-02-25T05:28:39.443Z,99.90
2019-02-25T05:31:09.544Z,99.90
2019-02-25T05:33:39.687Z,99.90
2019-02-25T05:36:09.996Z,99.90
2019-02-25T05:38:40.275Z,99.90
2019-02-25T05:41:10.554Z,99.90
2019-02-25T05:43:40.723Z,99.90
2019-02-25T05:46:10.945Z,99.90
2019-02-25T05:48:41.456Z,99.90
2019-02-25T05:51:11.680Z,99.90
2019-02-25T05:53:41.838Z,99.90
2019-02-25T05:56:12.136Z,99.90
2019-02-25T05:58:42.409Z,99.90
2019-02-25T06:01:13.442Z,99.90
2019-02-25T06:03:43.721Z,99.90
2019-02-25T06:06:13.904Z,99.90
2019-02-25T06:08:44.106Z,99.90
2019-02-25T06:11:14.386Z,99.90
2019-02-25T06:13:44.602Z,99.90
2019-02-25T06:16:14.982Z,99.90
2019-02-25T06:18:45.247Z,99.90
2019-02-25T06:21:16.571Z,99.90
2019-02-25T06:23:47.229Z,99.90
2019-02-25T06:26:19.147Z,99.90
2019-02-25T06:28:49.311Z,99.90
2019-02-25T06:31:19.536Z,99.90
2019-02-25T06:33:49.578Z,99.90
2019-02-25T06:36:19.846Z,99.90
2019-02-25T06:38:50.362Z,99.90
2019-02-25T06:41:20.606Z,99.90
2019-02-25T06:43:50.839Z,99.90
2019-02-25T06:46:20.994Z,99.90
2019-02-25T06:48:51.187Z,99.90
2019-02-25T06:51:21.379Z,99.90
2019-02-25T06:53:52.195Z,99.90
2019-02-25T06:56:22.422Z,99.90
2019-02-25T06:58:52.712Z,99.90
2019-02-25T07:01:22.885Z,99.90
2019-02-25T07:04:11.818Z,99.90
2019-02-25T07:07:00.063Z,99.90
2019-02-25T07:09:56.294Z,99.90
2019-02-25T07:12:36.037Z,99.90
2019-02-25T07:15:12.304Z,99.90
2019-02-25T07:18:04.231Z,99.90
2019-02-25T07:20:53.294Z,99.90
2019-02-25T07:23:41.538Z,99.90
2019-02-25T07:26:30.807Z,99.90
2019-02-25T07:29:28.879Z,99.90
2019-02-25T07:32:30.371Z,99.90
2019-02-25T07:35:12.330Z,99.90
2019-02-25T07:38:07.435Z,99.90
2019-02-25T07:41:02.743Z,99.90
2019-02-25T07:43:51.807Z,99.90
2019-02-25T07:46:38.105Z,99.90
2019-02-25T07:49:17.442Z,99.90
2019-02-25T07:52:15.615Z,99.90
2019-02-25T07:55:06.217Z,99.90
2019-02-25T07:57:49.759Z,99.90
2019-02-25T08:00:41.679Z,99.90
2019-02-25T08:03:33.813Z,99.90
2019-02-25T08:06:29.737Z,99.90
2019-02-25T08:09:13.477Z,99.90
2019-02-25T08:11:54.237Z,99.90
2019-02-25T08:14:36.752Z,99.90
2019-02-25T08:17:16.896Z,99.90
2019-02-25T08:19:57.061Z,99.90
2019-02-25T08:22:58.617Z,99.90
2019-02-25T08:25:46.349Z,99.90
2019-02-25T08:28:38.484Z,99.90
2019-02-25T08:31:33.590Z,99.90
2019-02-25T08:34:18.574Z,99.90
2019-02-25T08:37:53.170Z,99.90
2019-02-25T08:41:10.203Z,99.90
2019-02-25T08:44:01.725Z,99.90
2019-02-25T08:46:36.656Z,99.90
2019-02-25T08:49:13.636Z,99.90
2019-02-25T08:51:43.743Z,99.90
2019-02-25T08:54:14.008Z,99.90
2019-02-25T08:56:46.241Z,99.90
2019-02-25T08:59:19.827Z,99.90
2019-02-25T09:02:00.323Z,99.90
2019-02-25T09:04:34.506Z,99.90
2019-02-25T09:07:12.963Z,99.90
2019-02-25T09:09:56.582Z,99.90
2019-02-25T09:12:27.202Z,99.90
2019-02-25T09:15:02.293Z,99.90
2019-02-25T09:17:32.633Z,98.80
2019-02-25T09:20:11.383Z,99.70
2019-02-25T09:22:45.439Z,99.60
2019-02-25T09:25:16.486Z,95.10
2019-02-25T09:27:48.516Z,96.80
2019-02-25T09:30:18.878Z,97.50
2019-02-25T09:32:49.710Z,96.90
2019-02-25T09:35:19.920Z,95.10
2019-02-25T09:37:50.088Z,99.40
2019-02-25T09:40:20.384Z,95.50
2019-02-25T09:42:50.587Z,93.80
2019-02-25T09:45:20.892Z,94.30
2019-02-25T09:47:51.109Z,92.70
2019-02-25T09:50:21.293Z,91.50
2019-02-25T09:52:51.482Z,92.20
2019-02-25T09:55:23.536Z,90.90
2019-02-25T09:57:54.121Z,92.10
2019-02-25T10:00:25.330Z,91.40
2019-02-25T10:02:55.581Z,91.20
2019-02-25T10:05:25.809Z,88.60
2019-02-25T10:07:56.821Z,83.60
2019-02-25T10:10:27.002Z,85.90
2019-02-25T10:12:57.460Z,81.60
2019-02-25T10:15:28.002Z,84.30
2019-02-25T10:17:58.287Z,84.70
2019-02-25T10:20:28.498Z,85.80
2019-02-25T10:22:58.587Z,80.80
2019-02-25T10:25:28.846Z,80.70
2019-02-25T10:27:59.050Z,80.80
2019-02-25T10:30:29.252Z,79.60
2019-02-25T10:33:00.850Z,76.90
2019-02-25T10:35:31.152Z,79.20
2019-02-25T10:38:03.144Z,76.70
2019-02-25T10:40:33.226Z,75.90
2019-02-25T10:43:03.884Z,74.30
2019-02-25T10:45:35.207Z,74.20
2019-02-25T10:48:06.122Z,75.70
2019-02-25T10:50:38.421Z,74.20
2019-02-25T10:53:08.089Z,73.40
2019-02-25T10:55:45.042Z,72.80
2019-02-25T10:58:13.811Z,70.60
2019-02-25T11:00:45.952Z,70.30
2019-02-25T11:03:17.880Z,70.30
2019-02-25T11:05:47.802Z,70.50
2019-02-25T11:08:18.872Z,67.10
2019-02-25T11:11:16.298Z,66.30
2019-02-25T11:13:46.785Z,65.70
2019-02-25T11:16:19.864Z,62.40
2019-02-25T11:18:50.654Z,63.50
2019-02-25T11:21:20.675Z,63.30
2019-02-25T11:23:53.165Z,61.70
2019-02-25T11:26:23.808Z,59.70
2019-02-25T11:28:54.823Z,60.20
2019-02-25T11:31:26.943Z,59.10
2019-02-25T11:33:58.439Z,58.90
2019-02-25T11:36:28.817Z,58.70
2019-02-25T11:39:00.705Z,58.80
2019-02-25T11:41:34.134Z,57.60
2019-02-25T11:44:05.030Z,54.80
2019-02-25T11:46:37.035Z,51.70
2019-02-25T11:49:07.218Z,52.30
2019-02-25T11:51:37.405Z,51.40
2019-02-25T11:54:07.671Z,49.20
2019-02-25T11:56:37.886Z,47.40
2019-02-25T11:59:08.014Z,46.30
2019-02-25T12:01:38.231Z,47.20
2019-02-25T12:04:08.463Z,46.10
2019-02-25T12:06:38.693Z,45.60
2019-02-25T12:09:09.001Z,44.50
2019-02-25T12:11:40.142Z,45.00
2019-02-25T12:14:10.317Z,43.40
2019-02-25T12:16:40.577Z,42.20
2019-02-25T12:19:17.799Z,42.20
2019-02-25T12:21:42.658Z,38.40
2019-02-25T12:24:12.999Z,38.20
2019-02-25T12:26:43.212Z,38.80
2019-02-25T12:29:13.450Z,39.30
2019-02-25T12:31:43.645Z,39.00
2019-02-25T12:34:13.876Z,39.00
2019-02-25T12:36:44.049Z,39.20
2019-02-25T12:39:25.560Z,40.10
2019-02-25T12:41:55.951Z,38.10
2019-02-25T12:44:26.137Z,37.80
2019-02-25T12:46:56.394Z,36.90
2019-02-25T12:49:26.620Z,37.90
2019-02-25T12:51:56.839Z,37.50
2019-02-25T12:54:27.057Z,34.60
2019-02-25T12:56:57.228Z,36.70
2019-02-25T12:59:27.334Z,34.00
2019-02-25T13:01:57.787Z,32.30
2019-02-25T13:04:27.996Z,34.20
2019-02-25T13:06:58.274Z,34.60
2019-02-25T13:09:30.261Z,35.30
2019-02-25T13:12:00.401Z,34.90
2019-02-25T13:14:31.541Z,33.60
2019-02-25T13:17:01.825Z,32.60
2019-02-25T13:19:31.823Z,33.80
2019-02-25T13:22:02.058Z,33.50
2019-02-25T13:24:32.743Z,32.60
2019-02-25T13:27:05.660Z,31.00
2019-02-25T13:29:35.630Z,30.50
2019-02-25T13:32:05.750Z,31.00
2019-02-25T13:34:36.156Z,30.80
2019-02-25T13:37:06.905Z,31.70
2019-02-25T13:39:37.178Z,31.80
2019-02-25T13:42:07.401Z,30.10
2019-02-25T13:44:37.691Z,31.50
2019-02-25T13:47:07.901Z,31.10
2019-02-25T13:49:38.163Z,30.50
2019-02-25T13:52:08.458Z,30.00
2019-02-25T13:54:39.077Z,29.60
2019-02-25T13:57:09.498Z,30.50
2019-02-25T13:59:40.350Z,30.00
2019-02-25T14:02:10.552Z,31.70
2019-02-25T14:04:40.828Z,31.40
2019-02-25T14:07:11.827Z,31.10
2019-02-25T14:09:42.096Z,29.80
2019-02-25T14:12:12.406Z,29.80
2019-02-25T14:14:42.701Z,29.60
2019-02-25T14:17:13.844Z,29.10
2019-02-25T14:19:44.065Z,29.10
2019-02-25T14:22:14.849Z,28.40
2019-02-25T14:24:46.407Z,27.70
2019-02-25T14:27:16.598Z,29.50
2019-02-25T14:29:48.748Z,29.10
2019-02-25T14:32:19.097Z,28.80
2019-02-25T14:34:49.526Z,29.60
2019-02-25T14:37:21.772Z,28.90
2019-02-25T14:39:54.334Z,28.10
2019-02-25T14:42:25.996Z,28.20
2019-02-25T14:44:56.794Z,27.10
2019-02-25T14:47:34.793Z,27.50
2019-02-25T14:50:00.448Z,29.30
2019-02-25T14:52:31.767Z,28.80
2019-02-25T14:55:04.094Z,29.10
2019-02-25T14:57:35.538Z,29.10
2019-02-25T15:00:07.599Z,29.40
2019-02-25T15:02:39.005Z,29.30
2019-02-25T15:05:10.827Z,28.30
2019-02-25T15:07:42.896Z,29.30
2019-02-25T15:10:13.473Z,28.00
2019-02-25T15:12:43.841Z,30.40
2019-02-25T15:15:14.511Z,29.50
2019-02-25T15:17:46.098Z,29.50
2019-02-25T15:20:18.303Z,30.10
2019-02-25T15:22:49.048Z,29.70
2019-02-25T15:25:19.490Z,30.00
2019-02-25T15:27:49.722Z,30.20
2019-02-25T15:30:22.905Z,30.50
2019-02-25T15:32:56.931Z,30.50
2019-02-25T15:35:29.159Z,31.60
2019-02-25T15:38:00.086Z,33.20
2019-02-25T15:40:30.072Z,32.50
2019-02-25T15:43:04.915Z,32.80
2019-02-25T15:45:38.375Z,32.70
2019-02-25T15:48:19.336Z,32.50
2019-02-25T15:50:53.614Z,31.40
2019-02-25T15:53:24.905Z,32.40
2019-02-25T15:55:57.214Z,33.30
2019-02-25T15:58:27.152Z,32.80
2019-02-25T16:00:57.319Z,32.70
2019-02-25T16:03:27.997Z,34.60
2019-02-25T16:06:01.699Z,34.60
2019-02-25T16:08:31.117Z,35.30
2019-02-25T16:11:01.922Z,35.30
2019-02-25T16:13:32.718Z,35.60
2019-02-25T16:16:03.243Z,35.80
2019-02-25T16:18:33.570Z,36.80
2019-02-25T16:21:03.849Z,37.10
2019-02-25T16:23:34.664Z,36.70
2019-02-25T16:26:06.321Z,37.00
2019-02-25T16:28:37.901Z,37.00
2019-02-25T16:31:08.883Z,37.70
2019-02-25T16:33:40.484Z,37.80
2019-02-25T16:36:10.649Z,38.00
2019-02-25T16:38:40.881Z,37.90
2019-02-25T16:41:11.306Z,38.40
2019-02-25T16:43:41.568Z,38.90
2019-02-25T16:46:14.065Z,39.40
2019-02-25T16:48:43.967Z,41.30
2019-02-25T16:51:14.230Z,41.60
2019-02-25T16:53:45.581Z,42.30
2019-02-25T16:56:16.548Z,44.70
2019-02-25T16:58:47.714Z,47.90
2019-02-25T17:01:18.398Z,48.30
2019-02-25T17:03:48.744Z,50.30
2019-02-25T17:06:19.006Z,51.70
2019-02-25T17:08:50.945Z,53.40
2019-02-25T17:11:21.905Z,55.60
2019-02-25T17:13:53.003Z,56.70
2019-02-25T17:16:24.279Z,60.30
2019-02-25T17:18:54.421Z,60.00
2019-02-25T17:21:26.586Z,62.00
2019-02-25T17:23:58.198Z,63.90
2019-02-25T17:26:28.421Z,64.80
2019-02-25T17:28:58.597Z,67.30
2019-02-25T17:31:30.569Z,69.80
2019-02-25T17:34:00.721Z,70.20
2019-02-25T17:36:31.101Z,72.90
2019-02-25T17:39:01.383Z,75.40
2019-02-25T17:41:33.128Z,76.60
2019-02-25T17:44:03.999Z,82.60
2019-02-25T17:46:36.650Z,84.70
2019-02-25T17:49:07.869Z,81.40
2019-02-25T17:51:39.350Z,88.80
2019-02-25T17:54:10.210Z,89.20
2019-02-25T17:56:43.133Z,90.20
2019-02-25T17:59:14.997Z,85.40
2019-02-25T18:01:48.447Z,91.00
2019-02-25T18:04:20.858Z,91.70
2019-02-25T18:06:52.462Z,92.40
2019-02-25T18:09:24.852Z,92.20
2019-02-25T18:11:56.808Z,93.30
2019-02-25T18:14:29.149Z,93.00
2019-02-25T18:17:01.057Z,94.00
2019-02-25T18:19:34.467Z,94.30
2019-02-25T18:22:06.007Z,94.90
2019-02-25T18:24:38.421Z,94.80
2019-02-25T18:27:09.990Z,95.90
2019-02-25T18:29:44.009Z,96.70
2019-02-25T18:32:14.822Z,97.00
2019-02-25T18:34:46.858Z,96.10
2019-02-25T18:37:19.335Z,96.90
2019-02-25T18:39:52.136Z,97.40
2019-02-25T18:42:28.453Z,97.90
2019-02-25T18:45:00.255Z,98.50
2019-02-25T18:47:31.667Z,99.90
2019-02-25T18:50:03.213Z,99.90
2019-02-25T18:52:36.210Z,99.90
2019-02-25T18:55:08.985Z,99.90
2019-02-25T18:57:39.680Z,99.90
2019-02-25T19:00:12.716Z,99.90
2019-02-25T19:02:43.889Z,99.90
2019-02-25T19:05:14.885Z,99.90
2019-02-25T19:07:47.279Z,99.90
2019-02-25T19:10:22.191Z,99.90
2019-02-25T19:12:59.143Z,99.90
2019-02-25T19:15:30.508Z,99.90
2019-02-25T19:18:02.030Z,98.70
2019-02-25T19:20:34.781Z,94.80
2019-02-25T19:23:09.511Z,92.30
2019-02-25T19:25:41.814Z,92.50
2019-02-25T19:28:16.509Z,90.80
2019-02-25T19:30:46.646Z,91.10
2019-02-25T19:33:20.399Z,89.60
2019-02-25T19:35:52.536Z,90.60
2019-02-25T19:38:25.225Z,89.20
2019-02-25T19:40:57.599Z,90.10
2019-02-25T19:43:29.067Z,90.80
2019-02-25T19:46:01.757Z,88.10
2019-02-25T19:48:33.628Z,87.50
2019-02-25T19:51:06.220Z,87.90
2019-02-25T19:53:42.475Z,89.00
2019-02-25T19:56:13.639Z,89.60
2019-02-25T19:58:45.136Z,87.30
2019-02-25T20:01:16.818Z,86.40
2019-02-25T20:03:48.424Z,90.30
2019-02-25T20:06:21.705Z,89.90
2019-02-25T20:08:53.493Z,88.90
2019-02-25T20:11:25.872Z,89.50
2019-02-25T20:13:56.858Z,88.40
2019-02-25T20:16:29.759Z,87.50
2019-02-25T20:19:00.309Z,87.00
2019-02-25T20:21:31.113Z,86.70
2019-02-25T20:24:01.284Z,86.50
2019-02-25T20:26:32.745Z,85.80
2019-02-25T20:29:04.161Z,86.20
2019-02-25T20:31:35.376Z,85.30
2019-02-25T20:34:05.766Z,84.80
2019-02-25T20:36:35.919Z,85.20
2019-02-25T20:39:06.738Z,86.20
2019-02-25T20:41:36.941Z,84.90
2019-02-25T20:44:07.268Z,83.50
2019-02-25T20:46:38.630Z,83.90
2019-02-25T20:49:09.078Z,83.70
2019-02-25T20:51:39.346Z,86.20
2019-02-25T20:54:11.147Z,87.30
2019-02-25T20:56:41.339Z,87.10
2019-02-25T20:59:11.654Z,87.50
2019-02-25T21:01:44.005Z,89.10
2019-02-25T21:04:15.600Z,89.20
2019-02-25T21:06:45.693Z,89.10
2019-02-25T21:09:16.113Z,90.40
2019-02-25T21:11:46.346Z,89.60
2019-02-25T21:14:16.678Z,89.70
2019-02-25T21:16:46.770Z,88.90
2019-02-25T21:19:18.371Z,90.40
2019-02-25T21:21:52.951Z,90.30
2019-02-25T21:24:20.776Z,90.00
2019-02-25T21:26:50.942Z,89.20
2019-02-25T21:29:25.081Z,90.00
2019-02-25T21:31:56.115Z,89.80
2019-02-25T21:34:26.523Z,87.30
2019-02-25T21:36:58.513Z,89.20
2019-02-25T21:39:29.100Z,89.80
2019-02-25T21:41:59.272Z,88.90
2019-02-25T21:44:31.446Z,87.60
2019-02-25T21:47:03.733Z,86.60
2019-02-25T21:49:34.406Z,86.70
2019-02-25T21:52:06.257Z,87.30
2019-02-25T21:54:37.217Z,87.90
2019-02-25T21:57:09.590Z,87.20
2019-02-25T21:59:41.088Z,86.40
2019-02-25T22:02:11.089Z,86.50
2019-02-25T22:04:43.099Z,86.20
2019-02-25T22:07:17.159Z,88.00
2019-02-25T22:09:45.933Z,86.80
2019-02-25T22:12:16.288Z,85.50
2019-02-25T22:14:47.797Z,84.60
2019-02-25T22:17:20.634Z,84.20
2019-02-25T22:19:50.489Z,85.30
2019-02-25T22:22:24.113Z,85.10
2019-02-25T22:24:52.645Z,87.20
2019-02-25T22:27:23.070Z,89.00
2019-02-25T22:29:53.342Z,90.20
2019-02-25T22:32:23.679Z,90.40
2019-02-25T22:34:56.031Z,90.40
2019-02-25T22:37:26.885Z,90.30
2019-02-25T22:39:57.665Z,90.00
2019-02-25T22:42:29.690Z,90.10
2019-02-25T22:44:59.762Z,90.70
2019-02-25T22:47:30.066Z,90.50
2019-02-25T22:50:00.287Z,90.40
2019-02-25T22:52:31.511Z,90.30
2019-02-25T22:55:05.935Z,90.60
2019-02-25T22:57:34.069Z,90.50
2019-02-25T23:00:06.406Z,90.50
2019-02-25T23:02:36.841Z,90.20
2019-02-25T23:05:08.178Z,90.70
2019-02-25T23:07:39.121Z,90.70
2019-02-25T23:10:12.797Z,91.80
2019-02-25T23:12:42.875Z,92.70
2019-02-25T23:15:13.133Z,94.30
2019-02-25T23:17:44.858Z,94.50
2019-02-25T23:20:15.194Z,94.30
2019-02-25T23:22:45.410Z,94.30
2019-02-25T23:25:15.693Z,94.80
2019-02-25T23:27:45.905Z,94.00
2019-02-25T23:30:16.169Z,95.80
2019-02-25T23:32:46.389Z,96.40
2019-02-25T23:35:18.469Z,97.10
2019-02-25T23:37:51.033Z,96.90
2019-02-25T23:40:20.295Z,96.80
2019-02-25T23:42:50.497Z,97.30
2019-02-25T23:45:23.038Z,97.90
2019-02-25T23:47:55.254Z,98.10
2019-02-25T23:50:25.739Z,97.60
2019-02-25T23:52:56.408Z,97.40
2019-02-25T23:55:27.785Z,96.90
2019-02-25T23:57:58.573Z,96.80
